createdAt,value
2023-03-13T00:00:45.021Z,9.747429
2023-03-13T00:01:45.041Z,9.747399
2023-03-13T00:02:45.017Z,9.747405
2023-03-13T00:03:45.025Z,9.747405
2023-03-13T00:04:45.019Z,9.747411
2023-03-13T00:05:44.980Z,9.747401
2023-03-13T00:06:44.962Z,9.747490
2023-03-13T00:07:44.963Z,9.747519
2023-03-13T00:08:45.047Z,9.747506
2023-03-13T00:09:44.970Z,9.747343
2023-03-13T00:10:44.933Z,9.747377
2023-03-13T00:11:44.995Z,9.747434
2023-03-13T00:12:44.926Z,9.747375
2023-03-13T00:13:44.939Z,9.747429
2023-03-13T00:14:44.906Z,9.747428
2023-03-13T00:15:44.912Z,9.747499
2023-03-13T00:16:44.936Z,9.747399
2023-03-13T00:17:44.909Z,9.747455
2023-03-13T00:18:44.906Z,9.747376
2023-03-13T00:19:44.872Z,9.747446
2023-03-13T00:20:44.868Z,9.747357
2023-03-13T00:21:44.855Z,9.747335
2023-03-13T00:22:44.838Z,9.747261
2023-03-13T00:23:44.869Z,9.747229
2023-03-13T00:24:44.843Z,9.747177
2023-03-13T00:25:44.821Z,9.747260
2023-03-13T00:26:44.814Z,9.747374
2023-03-13T00:27:44.817Z,9.747469
2023-03-13T00:28:46.050Z,9.747443
2023-03-13T00:29:45.803Z,9.747443
2023-03-13T00:30:44.822Z,9.747336
2023-03-13T00:31:44.812Z,9.747536
2023-03-13T00:32:44.800Z,9.747528
2023-03-13T00:33:44.788Z,9.747449
2023-03-13T00:34:44.759Z,9.747262
2023-03-13T00:35:44.776Z,9.747511
2023-03-13T00:36:44.739Z,9.747447
2023-03-13T00:37:44.728Z,9.747399
2023-03-13T00:38:44.737Z,9.747408
2023-03-13T00:39:44.714Z,9.747507
2023-03-13T00:40:44.715Z,9.747416
2023-03-13T00:41:44.701Z,9.747553
2023-03-13T00:42:44.692Z,9.747604
2023-03-13T00:43:44.710Z,9.747589
2023-03-13T00:44:44.668Z,9.747632
2023-03-13T00:45:44.679Z,9.747552
2023-03-13T00:46:44.684Z,9.747478
2023-03-13T00:47:44.647Z,9.747556
2023-03-13T00:48:44.668Z,9.747540
2023-03-13T00:49:44.644Z,9.747468
2023-03-13T00:50:44.648Z,9.747443
2023-03-13T00:51:44.615Z,9.747472
2023-03-13T00:52:44.609Z,9.747582
2023-03-13T00:53:44.632Z,9.747697
2023-03-13T00:54:44.590Z,9.747608
2023-03-13T00:55:44.625Z,9.747423
2023-03-13T00:56:44.580Z,9.747379
2023-03-13T00:57:44.579Z,9.747418
2023-03-13T00:58:44.621Z,9.747431
2023-03-13T00:59:44.581Z,9.747537
2023-03-13T01:00:44.555Z,9.747361
2023-03-13T01:01:44.560Z,9.747225
2023-03-13T01:02:44.674Z,9.747334
2023-03-13T01:03:44.556Z,9.747417
2023-03-13T01:04:44.539Z,9.747445
2023-03-13T01:05:44.557Z,9.747418
2023-03-13T01:06:44.514Z,9.747365
2023-03-13T01:07:44.542Z,9.747424
2023-03-13T01:08:44.517Z,9.747237
2023-03-13T01:09:44.546Z,9.747329
2023-03-13T01:10:44.538Z,9.747459
2023-03-13T01:11:44.618Z,9.747554
2023-03-13T01:12:44.479Z,9.747401
2023-03-13T01:13:44.536Z,9.747185
2023-03-13T01:14:44.457Z,9.747215
2023-03-13T01:15:44.477Z,9.747416
2023-03-13T01:16:44.448Z,9.747293
2023-03-13T01:17:44.437Z,9.747406
2023-03-13T01:18:44.466Z,9.747310
2023-03-13T01:19:44.414Z,9.747328
2023-03-13T01:20:44.422Z,9.747368
2023-03-13T01:21:44.463Z,9.747375
2023-03-13T01:22:44.451Z,9.747336
2023-03-13T01:23:44.423Z,9.747367
2023-03-13T01:24:44.398Z,9.747437
2023-03-13T01:25:44.372Z,9.747360
2023-03-13T01:26:44.412Z,9.747322
2023-03-13T01:27:44.358Z,9.747299
2023-03-13T01:28:44.377Z,9.747352
2023-03-13T01:29:44.344Z,9.747369
2023-03-13T01:30:44.420Z,9.747244
2023-03-13T01:31:44.337Z,9.747280
2023-03-13T01:32:44.342Z,9.747284
2023-03-13T01:33:44.343Z,9.747252
2023-03-13T01:34:44.336Z,9.747322
2023-03-13T01:35:44.425Z,9.747169
2023-03-13T01:36:44.291Z,9.747243
2023-03-13T01:37:44.294Z,9.747322
2023-03-13T01:38:44.327Z,9.747257
2023-03-13T01:39:44.276Z,9.747310
2023-03-13T01:40:44.258Z,9.747396
2023-03-13T01:41:44.261Z,9.747458
2023-03-13T01:42:44.248Z,9.747396
2023-03-13T01:43:44.284Z,9.747437
2023-03-13T01:44:44.249Z,9.747436
2023-03-13T01:45:44.215Z,9.747398
2023-03-13T01:46:44.300Z,9.747311
2023-03-13T01:47:44.894Z,9.747372
2023-03-13T01:48:44.213Z,9.747362
2023-03-13T01:49:44.194Z,9.747352
2023-03-13T01:50:44.182Z,9.747366
2023-03-13T01:51:45.179Z,9.747352
2023-03-13T01:52:44.180Z,9.747418
2023-03-13T01:53:44.210Z,9.747384
2023-03-13T01:54:44.153Z,9.747335
2023-03-13T01:55:44.137Z,9.747396
2023-03-13T01:56:44.126Z,9.747435
2023-03-13T01:57:44.127Z,9.747425
2023-03-13T01:58:44.153Z,9.747415
2023-03-13T01:59:44.120Z,9.747330
2023-03-13T02:00:44.102Z,9.747365
2023-03-13T02:01:44.171Z,9.747407
2023-03-13T02:02:44.145Z,9.747355
2023-03-13T02:03:44.073Z,9.747388
2023-03-13T02:04:44.092Z,9.747387
2023-03-13T02:05:44.059Z,9.747377
2023-03-13T02:06:44.047Z,9.747232
2023-03-13T02:07:44.061Z,9.747456
2023-03-13T02:08:44.025Z,9.747381
2023-03-13T02:09:44.067Z,9.747356
2023-03-13T02:10:44.011Z,9.747443
2023-03-13T02:11:44.012Z,9.747392
2023-03-13T02:12:44.007Z,9.747331
2023-03-13T02:13:44.048Z,9.747246
2023-03-13T02:14:44.012Z,9.747254
2023-03-13T02:15:44.000Z,9.747434
2023-03-13T02:16:43.986Z,9.747440
2023-03-13T02:17:43.953Z,9.747400
2023-03-13T02:18:43.963Z,9.747441
2023-03-13T02:19:43.984Z,9.747424
2023-03-13T02:20:43.925Z,9.747359
2023-03-13T02:21:43.942Z,9.747485
2023-03-13T02:22:43.916Z,9.747332
2023-03-13T02:23:43.920Z,9.747216
2023-03-13T02:24:43.967Z,9.747326
2023-03-13T02:25:43.890Z,9.747285
2023-03-13T02:26:43.891Z,9.747352
2023-03-13T02:27:43.871Z,9.747488
2023-03-13T02:28:43.876Z,9.747396
2023-03-13T02:29:43.873Z,9.747559
2023-03-13T02:30:43.852Z,9.747470
2023-03-13T02:31:43.874Z,9.747389
2023-03-13T02:32:43.881Z,9.747408
2023-03-13T02:33:43.819Z,9.747428
2023-03-13T02:34:43.841Z,9.747380
2023-03-13T02:35:43.838Z,9.747394
2023-03-13T02:36:43.804Z,9.747357
2023-03-13T02:37:43.792Z,9.747399
2023-03-13T02:38:43.793Z,9.747414
2023-03-13T02:39:43.802Z,9.747417
2023-03-13T02:40:43.774Z,9.747524
2023-03-13T02:41:43.759Z,9.747503
2023-03-13T02:42:43.777Z,9.747487
2023-03-13T02:43:43.759Z,9.747315
2023-03-13T02:44:43.783Z,9.747345
2023-03-13T02:45:43.740Z,9.747475
2023-03-13T02:46:43.759Z,9.747338
2023-03-13T02:47:43.741Z,9.747644
2023-03-13T02:48:43.709Z,9.747535
2023-03-13T02:49:43.737Z,9.747363
2023-03-13T02:50:43.700Z,9.747355
2023-03-13T02:51:43.699Z,9.747592
2023-03-13T02:52:43.684Z,9.747705
2023-03-13T02:53:43.688Z,9.747536
2023-03-13T02:54:43.706Z,9.747547
2023-03-13T02:55:43.711Z,9.747589
2023-03-13T02:56:43.667Z,9.747484
2023-03-13T02:57:43.701Z,9.747798
2023-03-13T02:58:49.733Z,9.747597
2023-03-13T02:59:45.674Z,9.747736
2023-03-13T03:00:43.647Z,9.747522
2023-03-13T03:01:43.615Z,9.747478
2023-03-13T03:02:43.600Z,9.747489
2023-03-13T03:03:43.687Z,9.747520
2023-03-13T03:04:43.624Z,9.747568
2023-03-13T03:05:43.626Z,9.747444
2023-03-13T03:06:43.613Z,9.747545
2023-03-13T03:07:43.571Z,9.747755
2023-03-13T03:08:43.557Z,9.747476
2023-03-13T03:09:43.566Z,9.747516
2023-03-13T03:10:43.574Z,9.747713
2023-03-13T03:11:43.550Z,9.747699
2023-03-13T03:12:43.537Z,9.747612
2023-03-13T03:13:43.547Z,9.747561
2023-03-13T03:14:43.530Z,9.747577
2023-03-13T03:15:43.542Z,9.747526
2023-03-13T03:16:43.621Z,9.747373
2023-03-13T03:17:43.507Z,9.747592
2023-03-13T03:18:43.489Z,9.747584
2023-03-13T03:19:43.475Z,9.747377
2023-03-13T03:20:43.509Z,9.747404
2023-03-13T03:21:43.479Z,9.747376
2023-03-13T03:22:43.456Z,9.747413
2023-03-13T03:23:43.471Z,9.747422
2023-03-13T03:24:43.447Z,9.747450
2023-03-13T03:25:43.460Z,9.747508
2023-03-13T03:26:43.447Z,9.747477
2023-03-13T03:27:43.413Z,9.747386
2023-03-13T03:28:43.425Z,9.747467
2023-03-13T03:29:43.405Z,9.747406
2023-03-13T03:30:43.413Z,9.747541
2023-03-13T03:31:43.501Z,9.747537
2023-03-13T03:32:43.437Z,9.747291
2023-03-13T03:33:43.380Z,9.747285
2023-03-13T03:34:43.353Z,9.747370
2023-03-13T03:35:43.424Z,9.747481
2023-03-13T03:36:43.337Z,9.747437
2023-03-13T03:37:43.362Z,9.747422
2023-03-13T03:38:43.322Z,9.747387
2023-03-13T03:39:43.342Z,9.747370
2023-03-13T03:40:43.404Z,9.747328
2023-03-13T03:41:43.294Z,9.747021
2023-03-13T03:42:43.324Z,9.747172
2023-03-13T03:43:43.274Z,9.747334
2023-03-13T03:44:43.278Z,9.747355
2023-03-13T03:45:43.300Z,9.747417
2023-03-13T03:46:43.417Z,9.747323
2023-03-13T03:47:43.302Z,9.747489
2023-03-13T03:48:43.259Z,9.747442
2023-03-13T03:49:43.231Z,9.747610
2023-03-13T03:50:43.272Z,9.747494
2023-03-13T03:51:43.220Z,9.747477
2023-03-13T03:52:43.223Z,9.747572
2023-03-13T03:53:43.204Z,9.747664
2023-03-13T03:54:43.200Z,9.747538
2023-03-13T03:55:43.217Z,9.747394
2023-03-13T03:56:43.207Z,9.747723
2023-03-13T03:57:43.177Z,9.747434
2023-03-13T03:58:43.214Z,9.747615
2023-03-13T03:59:43.174Z,9.747504
2023-03-13T04:00:43.202Z,9.747413
2023-03-13T04:01:43.203Z,9.747484
2023-03-13T04:02:43.297Z,9.747431
2023-03-13T04:03:43.296Z,9.747310
2023-03-13T04:04:43.121Z,9.747385
2023-03-13T04:05:43.162Z,9.747954
2023-03-13T04:06:43.119Z,9.747667
2023-03-13T04:07:43.133Z,9.747381
2023-03-13T04:08:43.098Z,9.747769
2023-03-13T04:09:43.100Z,9.747384
2023-03-13T04:10:43.161Z,9.747323
2023-03-13T04:11:43.068Z,9.747172
2023-03-13T04:12:43.065Z,9.747437
2023-03-13T04:13:43.071Z,9.747288
2023-03-13T04:14:43.047Z,9.747096
2023-03-13T04:15:43.102Z,9.747335
2023-03-13T04:16:43.219Z,9.747668
2023-03-13T04:17:43.036Z,9.747559
2023-03-13T04:18:43.041Z,9.747599
2023-03-13T04:19:43.059Z,9.747598
2023-03-13T04:20:43.040Z,9.747258
2023-03-13T04:21:43.040Z,9.747381
2023-03-13T04:22:42.995Z,9.747381
2023-03-13T04:23:42.997Z,9.747496
2023-03-13T04:24:42.987Z,9.747207
2023-03-13T04:25:42.988Z,9.747401
2023-03-13T04:26:42.997Z,9.747422
2023-03-13T04:27:42.969Z,9.747540
2023-03-13T04:28:42.960Z,9.747637
2023-03-13T04:29:42.950Z,9.747445
2023-03-13T04:30:42.949Z,9.747550
2023-03-13T04:31:42.960Z,9.747343
2023-03-13T04:32:42.953Z,9.747398
2023-03-13T04:33:42.908Z,9.747626
2023-03-13T04:34:42.909Z,9.747715
2023-03-13T04:35:43.025Z,9.747494
2023-03-13T04:36:42.935Z,9.747633
2023-03-13T04:37:42.889Z,9.747609
2023-03-13T04:38:42.874Z,9.747391
2023-03-13T04:39:42.860Z,9.747653
2023-03-13T04:40:42.854Z,9.747564
2023-03-13T04:41:42.881Z,9.747519
2023-03-13T04:42:42.851Z,9.747403
2023-03-13T04:43:42.849Z,9.747163
2023-03-13T04:44:43.740Z,9.747312
2023-03-13T04:45:43.847Z,9.747658
2023-03-13T04:46:42.833Z,9.747900
2023-03-13T04:47:42.801Z,9.747675
2023-03-13T04:48:42.792Z,9.747450
2023-03-13T04:49:42.769Z,9.747629
2023-03-13T04:50:43.768Z,9.747869
2023-03-13T04:51:42.894Z,9.747628
2023-03-13T04:52:42.757Z,9.747496
2023-03-13T04:53:42.756Z,9.747599
2023-03-13T04:54:42.755Z,9.747620
2023-03-13T04:55:42.750Z,9.747400
2023-03-13T04:56:44.285Z,9.747533
2023-03-13T04:57:43.722Z,9.747487
2023-03-13T04:58:42.711Z,9.747552
2023-03-13T04:59:42.709Z,9.747812
2023-03-13T05:00:42.698Z,9.747643
2023-03-13T05:01:42.763Z,9.747800
2023-03-13T05:02:42.688Z,9.747604
2023-03-13T05:03:42.680Z,9.747643
2023-03-13T05:04:42.689Z,9.747696
2023-03-13T05:05:42.664Z,9.747850
2023-03-13T05:06:42.688Z,9.747620
2023-03-13T05:07:43.638Z,9.747582
2023-03-13T05:08:42.639Z,9.747943
2023-03-13T05:09:42.633Z,9.747474
2023-03-13T05:10:42.648Z,9.747809
2023-03-13T05:11:42.632Z,9.747642
2023-03-13T05:12:42.606Z,9.747354
2023-03-13T05:13:42.591Z,9.747483
2023-03-13T05:14:42.589Z,9.747557
2023-03-13T05:15:42.600Z,9.747748
2023-03-13T05:16:42.614Z,9.747731
2023-03-13T05:17:42.561Z,9.747636
2023-03-13T05:18:42.568Z,9.747809
2023-03-13T05:19:42.552Z,9.747686
2023-03-13T05:20:42.543Z,9.747566
2023-03-13T05:21:42.597Z,9.747680
2023-03-13T05:22:42.528Z,9.747452
2023-03-13T05:23:42.524Z,9.747477
2023-03-13T05:24:42.512Z,9.747511
2023-03-13T05:25:42.503Z,9.747469
2023-03-13T05:26:42.544Z,9.747507
2023-03-13T05:27:42.549Z,9.747555
2023-03-13T05:28:42.489Z,9.747618
2023-03-13T05:29:42.492Z,9.747429
2023-03-13T05:30:42.538Z,9.747597
2023-03-13T05:31:42.528Z,9.747581
2023-03-13T05:32:42.491Z,9.747540
2023-03-13T05:33:42.449Z,9.747746
2023-03-13T05:34:42.455Z,9.747711
2023-03-13T05:35:42.582Z,9.747653
2023-03-13T05:36:42.439Z,9.747557
2023-03-13T05:37:42.418Z,9.747505
2023-03-13T05:38:42.396Z,9.747795
2023-03-13T05:39:42.399Z,9.747644
2023-03-13T05:40:42.390Z,9.747643
2023-03-13T05:41:43.415Z,9.747581
2023-03-13T05:42:42.385Z,9.747566
2023-03-13T05:43:42.384Z,9.747550
2023-03-13T05:44:42.394Z,9.747501
2023-03-13T05:45:42.356Z,9.747572
2023-03-13T05:46:42.426Z,9.747532
2023-03-13T05:47:42.350Z,9.747533
2023-03-13T05:48:42.344Z,9.747454
2023-03-13T05:49:42.324Z,9.747567
2023-03-13T05:50:42.307Z,9.747714
2023-03-13T05:51:42.307Z,9.747650
2023-03-13T05:52:42.321Z,9.747621
2023-03-13T05:53:42.344Z,9.747609
2023-03-13T05:54:42.298Z,9.747634
2023-03-13T05:55:42.313Z,9.747516
2023-03-13T05:56:42.298Z,9.747622
2023-03-13T05:57:42.298Z,9.747591
2023-03-13T05:58:42.247Z,9.747547
2023-03-13T05:59:42.226Z,9.747555
2023-03-13T06:00:42.223Z,9.747519
2023-03-13T06:01:42.201Z,9.747638
2023-03-13T06:02:43.259Z,9.747803
2023-03-13T06:03:42.811Z,9.747658
2023-03-13T06:04:42.310Z,9.747498
2023-03-13T06:05:42.195Z,9.747493
2023-03-13T06:06:42.217Z,9.747519
2023-03-13T06:07:42.200Z,9.747509
2023-03-13T06:08:42.185Z,9.747434
2023-03-13T06:09:42.148Z,9.747536
2023-03-13T06:10:42.142Z,9.747677
2023-03-13T06:11:42.136Z,9.747647
2023-03-13T06:12:42.157Z,9.747575
2023-03-13T06:13:42.162Z,9.747622
2023-03-13T06:14:42.166Z,9.747666
2023-03-13T06:15:42.162Z,9.747609
2023-03-13T06:16:43.105Z,9.747679
2023-03-13T06:17:42.103Z,9.747617
2023-03-13T06:18:43.102Z,9.747633
2023-03-13T06:19:42.086Z,9.747668
2023-03-13T06:20:42.673Z,9.747597
2023-03-13T06:21:43.047Z,9.747519
2023-03-13T06:22:42.090Z,9.747512
2023-03-13T06:23:42.039Z,9.747491
2023-03-13T06:24:42.046Z,9.747501
2023-03-13T06:25:42.024Z,9.747566
2023-03-13T06:26:42.006Z,9.747458
2023-03-13T06:27:42.037Z,9.747589
2023-03-13T06:28:42.044Z,9.747567
2023-03-13T06:29:41.996Z,9.747414
2023-03-13T06:30:41.998Z,9.747519
2023-03-13T06:31:42.064Z,9.747569
2023-03-13T06:32:42.098Z,9.747556
2023-03-13T06:33:41.963Z,9.747587
2023-03-13T06:34:41.975Z,9.747491
2023-03-13T06:35:55.174Z,9.747429
2023-03-13T06:36:43.961Z,9.747574
2023-03-13T06:37:41.953Z,9.747505
2023-03-13T06:38:41.973Z,9.747494
2023-03-13T06:39:41.967Z,9.747513
2023-03-13T06:40:41.943Z,9.747514
2023-03-13T06:41:42.036Z,9.747453
2023-03-13T06:42:41.919Z,9.747535
2023-03-13T06:43:41.881Z,9.747483
2023-03-13T06:44:41.929Z,9.747476
2023-03-13T06:45:41.877Z,9.747468
2023-03-13T06:46:41.909Z,9.747250
2023-03-13T06:47:41.884Z,9.747416
2023-03-13T06:48:41.860Z,9.747443
2023-03-13T06:49:41.865Z,9.747514
2023-03-13T06:50:41.848Z,9.747546
2023-03-13T06:51:41.818Z,9.747443
2023-03-13T06:52:44.224Z,9.747390
2023-03-13T06:53:42.805Z,9.747371
2023-03-13T06:54:41.793Z,9.747615
2023-03-13T06:55:41.791Z,9.747494
2023-03-13T06:56:41.774Z,9.747428
2023-03-13T06:57:41.821Z,9.747435
2023-03-13T06:58:41.792Z,9.747568
2023-03-13T06:59:41.769Z,9.747558
2023-03-13T07:00:41.771Z,9.747288
2023-03-13T07:01:41.769Z,9.747312
2023-03-13T07:02:41.768Z,9.747329
2023-03-13T07:03:41.779Z,9.747589
2023-03-13T07:04:43.620Z,9.747663
2023-03-13T07:05:41.712Z,9.747552
2023-03-13T07:06:41.713Z,9.747375
2023-03-13T07:07:41.749Z,9.747403
2023-03-13T07:08:41.703Z,9.747350
2023-03-13T07:09:41.679Z,9.747457
2023-03-13T07:10:41.682Z,9.747403
2023-03-13T07:11:41.662Z,9.747503
2023-03-13T07:12:41.701Z,9.747597
2023-03-13T07:13:41.653Z,9.747579
2023-03-13T07:14:41.649Z,9.747526
2023-03-13T07:15:41.624Z,9.747466
2023-03-13T07:16:41.683Z,9.747537
2023-03-13T07:17:41.738Z,9.747409
2023-03-13T07:18:41.612Z,9.747348
2023-03-13T07:19:41.609Z,9.747444
2023-03-13T07:20:41.664Z,9.747430
2023-03-13T07:21:41.598Z,9.747263
2023-03-13T07:22:41.616Z,9.747367
2023-03-13T07:23:41.576Z,9.747670
2023-03-13T07:24:41.691Z,9.747538
2023-03-13T07:25:41.567Z,9.747783
2023-03-13T07:26:51.224Z,9.748042
2023-03-13T07:27:43.571Z,9.747930
2023-03-13T07:28:41.533Z,9.747633
2023-03-13T07:29:42.546Z,9.747785
2023-03-13T07:30:41.544Z,9.747680
2023-03-13T07:31:41.630Z,9.747684
2023-03-13T07:32:41.581Z,9.747658
2023-03-13T07:33:41.501Z,9.747643
2023-03-13T07:34:41.506Z,9.747888
2023-03-13T07:35:41.480Z,9.747916
2023-03-13T07:36:41.618Z,9.747750
2023-03-13T07:37:41.501Z,9.747711
2023-03-13T07:38:41.471Z,9.747580
2023-03-13T07:39:41.482Z,9.747544
2023-03-13T07:40:41.443Z,9.747589
2023-03-13T07:41:41.461Z,9.747654
2023-03-13T07:42:41.460Z,9.747415
2023-03-13T07:43:41.430Z,9.747458
2023-03-13T07:44:41.411Z,9.747394
2023-03-13T07:45:41.458Z,9.747380
2023-03-13T07:46:41.399Z,9.747355
2023-03-13T07:47:41.395Z,9.747372
2023-03-13T07:48:41.442Z,9.747410
2023-03-13T07:49:41.375Z,9.747417
2023-03-13T07:50:41.398Z,9.747579
2023-03-13T07:51:44.156Z,9.747461
2023-03-13T07:52:42.372Z,9.747649
2023-03-13T07:53:41.409Z,9.747472
2023-03-13T07:54:41.333Z,9.747505
2023-03-13T07:55:41.341Z,9.747511
2023-03-13T07:56:41.323Z,9.747431
2023-03-13T07:57:41.361Z,9.747405
2023-03-13T07:58:41.328Z,9.747380
2023-03-13T07:59:41.292Z,9.747410
2023-03-13T08:00:41.281Z,9.747365
2023-03-13T08:01:41.273Z,9.747350
2023-03-13T08:02:41.362Z,9.747402
2023-03-13T08:03:41.368Z,9.747413
2023-03-13T08:04:41.265Z,9.747405
2023-03-13T08:05:41.245Z,9.747398
2023-03-13T08:06:41.246Z,9.747620
2023-03-13T08:07:41.236Z,9.747489
2023-03-13T08:08:41.261Z,9.747494
2023-03-13T08:09:41.225Z,9.747476
2023-03-13T08:10:41.221Z,9.747487
2023-03-13T08:11:41.204Z,9.747437
2023-03-13T08:12:41.193Z,9.747457
2023-03-13T08:13:41.204Z,9.747486
2023-03-13T08:14:41.168Z,9.747412
2023-03-13T08:15:41.157Z,9.747396
2023-03-13T08:16:41.202Z,9.747467
2023-03-13T08:17:41.151Z,9.747518
2023-03-13T08:18:41.166Z,9.747416
2023-03-13T08:19:41.127Z,9.747431
2023-03-13T08:20:41.137Z,9.747405
2023-03-13T08:21:41.125Z,9.747479
2023-03-13T08:22:41.181Z,9.747537
2023-03-13T08:23:41.151Z,9.747508
2023-03-13T08:24:41.100Z,9.747425
2023-03-13T08:25:41.111Z,9.747481
2023-03-13T08:26:41.072Z,9.747496
2023-03-13T08:27:41.068Z,9.747430
2023-03-13T08:28:41.107Z,9.747409
2023-03-13T08:29:41.049Z,9.747389
2023-03-13T08:30:41.121Z,9.747357
2023-03-13T08:31:41.045Z,9.747521
2023-03-13T08:32:41.058Z,9.747394
2023-03-13T08:33:41.043Z,9.747521
2023-03-13T08:34:42.019Z,9.747384
2023-03-13T08:35:41.037Z,9.747455
2023-03-13T08:36:41.014Z,9.747349
2023-03-13T08:37:40.986Z,9.747435
2023-03-13T08:38:41.011Z,9.747358
2023-03-13T08:39:40.974Z,9.747300
2023-03-13T08:40:40.966Z,9.747270
2023-03-13T08:41:40.951Z,9.747288
2023-03-13T08:42:40.948Z,9.747031
2023-03-13T08:43:40.967Z,9.747219
2023-03-13T08:44:40.930Z,9.747377
2023-03-13T08:45:40.927Z,9.747307
2023-03-13T08:46:40.980Z,9.747171
2023-03-13T08:47:40.912Z,9.746789
2023-03-13T08:48:40.967Z,9.747278
2023-03-13T08:49:40.906Z,9.747294
2023-03-13T08:50:40.896Z,9.747367
2023-03-13T08:51:40.889Z,9.747406
2023-03-13T08:52:40.889Z,9.747262
2023-03-13T08:53:40.893Z,9.747260
2023-03-13T08:54:40.864Z,9.747413
2023-03-13T08:55:40.866Z,9.747397
2023-03-13T08:56:40.866Z,9.747277
2023-03-13T08:57:40.841Z,9.747151
2023-03-13T08:58:40.873Z,9.747130
2023-03-13T08:59:40.830Z,9.747173
2023-03-13T09:00:40.820Z,9.747168
2023-03-13T09:01:40.808Z,9.747163
2023-03-13T09:02:40.846Z,9.747053
2023-03-13T09:03:40.924Z,9.747256
2023-03-13T09:04:40.794Z,9.747513
2023-03-13T09:05:54.788Z,9.747366
2023-03-13T09:06:42.788Z,9.747341
2023-03-13T09:07:40.771Z,9.747505
2023-03-13T09:08:41.304Z,9.747567
2023-03-13T09:09:40.791Z,9.747498
2023-03-13T09:10:40.769Z,9.747458
2023-03-13T09:11:40.765Z,9.747495
2023-03-13T09:12:40.728Z,9.747479
2023-03-13T09:13:40.743Z,9.747516
2023-03-13T09:14:40.719Z,9.747593
2023-03-13T09:15:40.794Z,9.747624
2023-03-13T09:16:41.303Z,9.747682
2023-03-13T09:17:40.684Z,9.747529
2023-03-13T09:18:40.706Z,9.747540
2023-03-13T09:19:50.702Z,9.747681
2023-03-13T09:20:42.665Z,9.747618
2023-03-13T09:21:40.665Z,9.747656
2023-03-13T09:22:40.650Z,9.747581
2023-03-13T09:23:40.675Z,9.747484
2023-03-13T09:24:40.636Z,9.747433
2023-03-13T09:25:40.634Z,9.747373
2023-03-13T09:26:46.500Z,9.747386
2023-03-13T09:27:42.607Z,9.747392
2023-03-13T09:28:40.633Z,9.747364
2023-03-13T09:29:40.616Z,9.747144
2023-03-13T09:30:40.614Z,9.747357
2023-03-13T09:31:40.613Z,9.747274
2023-03-13T09:32:40.640Z,9.747360
2023-03-13T09:33:40.629Z,9.747362
2023-03-13T09:34:40.647Z,9.747495
2023-03-13T09:35:40.603Z,9.747529
2023-03-13T09:36:40.555Z,9.747550
2023-03-13T09:37:40.533Z,9.747485
2023-03-13T09:38:40.568Z,9.747472
2023-03-13T09:39:40.523Z,9.747487
2023-03-13T09:40:40.504Z,9.747528
2023-03-13T09:41:40.532Z,9.747455
2023-03-13T09:42:40.496Z,9.747498
2023-03-13T09:43:40.529Z,9.747452
2023-03-13T09:44:40.487Z,9.747399
2023-03-13T09:45:41.481Z,9.747479
2023-03-13T09:46:40.561Z,9.747510
2023-03-13T09:47:40.489Z,9.747491
2023-03-13T09:48:40.496Z,9.747581
2023-03-13T09:49:40.453Z,9.747544
2023-03-13T09:50:40.470Z,9.747450
2023-03-13T09:51:40.441Z,9.747398
2023-03-13T09:52:40.473Z,9.747514
2023-03-13T09:53:40.462Z,9.747548
2023-03-13T09:54:40.493Z,9.747433
2023-03-13T09:55:40.416Z,9.747375
2023-03-13T09:56:40.389Z,9.747489
2023-03-13T09:57:40.411Z,9.747602
2023-03-13T09:58:40.404Z,9.747537
2023-03-13T09:59:40.371Z,9.747478
2023-03-13T10:00:40.408Z,9.747418
2023-03-13T10:01:40.470Z,9.747429
2023-03-13T10:02:40.343Z,9.747431
2023-03-13T10:03:41.249Z,9.747452
2023-03-13T10:04:41.853Z,9.747406
2023-03-13T10:05:41.382Z,9.747445
2023-03-13T10:06:40.318Z,9.747397
2023-03-13T10:07:40.325Z,9.747444
2023-03-13T10:08:40.334Z,9.747420
2023-03-13T10:09:40.303Z,9.747441
2023-03-13T10:10:40.281Z,9.747454
2023-03-13T10:11:40.273Z,9.747486
2023-03-13T10:12:40.285Z,9.747495
2023-03-13T10:13:40.276Z,9.747432
2023-03-13T10:14:40.258Z,9.747399
2023-03-13T10:15:40.252Z,9.747464
2023-03-13T10:16:40.305Z,9.747462
2023-03-13T10:17:40.259Z,9.747520
2023-03-13T10:18:40.260Z,9.747473
2023-03-13T10:19:40.210Z,9.747484
2023-03-13T10:20:40.223Z,9.747373
2023-03-13T10:21:40.222Z,9.747487
2023-03-13T10:22:40.197Z,9.747437
2023-03-13T10:23:40.231Z,9.747519
2023-03-13T10:24:40.222Z,9.747519
2023-03-13T10:25:40.237Z,9.747525
2023-03-13T10:26:40.165Z,9.747479
2023-03-13T10:27:40.148Z,9.747463
2023-03-13T10:28:40.193Z,9.747548
2023-03-13T10:29:40.213Z,9.747626
2023-03-13T10:30:40.169Z,9.747614
2023-03-13T10:31:40.210Z,9.747625
2023-03-13T10:32:40.852Z,9.747635
2023-03-13T10:33:40.138Z,9.747596
2023-03-13T10:34:40.127Z,9.747568
2023-03-13T10:35:40.176Z,9.747566
2023-03-13T10:36:40.092Z,9.747771
2023-03-13T10:37:40.097Z,9.747742
2023-03-13T10:38:40.066Z,9.747719
2023-03-13T10:39:40.689Z,9.747679
2023-03-13T10:40:40.062Z,9.747565
2023-03-13T10:41:40.030Z,9.747626
2023-03-13T10:42:40.039Z,9.747640
2023-03-13T10:43:40.028Z,9.747639
2023-03-13T10:44:40.172Z,9.747564
2023-03-13T10:45:40.046Z,9.747481
2023-03-13T10:46:40.055Z,9.747427
2023-03-13T10:47:40.005Z,9.747498
2023-03-13T10:48:39.979Z,9.747535
2023-03-13T10:49:40.009Z,9.747582
2023-03-13T10:50:39.968Z,9.747600
2023-03-13T10:51:39.966Z,9.747551
2023-03-13T10:52:39.957Z,9.747442
2023-03-13T10:53:39.960Z,9.747570
2023-03-13T10:54:39.970Z,9.747632
2023-03-13T10:55:39.943Z,9.747596
2023-03-13T10:56:39.923Z,9.747572
2023-03-13T10:57:39.930Z,9.747595
2023-03-13T10:58:39.908Z,9.747638
2023-03-13T10:59:39.924Z,9.747576
2023-03-13T11:00:39.934Z,9.747586
2023-03-13T11:01:39.911Z,9.747554
2023-03-13T11:02:40.109Z,9.747597
2023-03-13T11:03:39.933Z,9.747435
2023-03-13T11:04:39.922Z,9.747464
2023-03-13T11:05:39.847Z,9.747412
2023-03-13T11:06:39.848Z,9.747445
2023-03-13T11:07:39.835Z,9.747516
2023-03-13T11:08:39.859Z,9.747459
2023-03-13T11:09:39.866Z,9.747301
2023-03-13T11:10:39.823Z,9.747363
2023-03-13T11:11:39.802Z,9.747482
2023-03-13T11:12:39.793Z,9.747490
2023-03-13T11:13:39.799Z,9.747478
2023-03-13T11:14:39.990Z,9.747597
2023-03-13T11:15:39.801Z,9.747432
2023-03-13T11:16:39.836Z,9.747592
2023-03-13T11:17:39.777Z,9.747549
2023-03-13T11:18:39.749Z,9.747512
2023-03-13T11:19:39.765Z,9.747434
2023-03-13T11:20:39.753Z,9.747338
2023-03-13T11:21:39.729Z,9.747282
2023-03-13T11:22:39.712Z,9.747380
2023-03-13T11:23:39.707Z,9.747393
2023-03-13T11:24:39.715Z,9.747226
2023-03-13T11:25:39.706Z,9.747491
2023-03-13T11:26:39.704Z,9.747231
2023-03-13T11:27:39.827Z,9.747390
2023-03-13T11:28:39.684Z,9.747424
2023-03-13T11:29:39.779Z,9.747345
2023-03-13T11:30:39.664Z,9.747488
2023-03-13T11:31:39.674Z,9.747509
2023-03-13T11:32:39.709Z,9.747457
2023-03-13T11:33:39.628Z,9.747362
2023-03-13T11:34:39.655Z,9.747237
2023-03-13T11:35:39.743Z,9.747356
2023-03-13T11:36:39.691Z,9.747558
2023-03-13T11:37:39.604Z,9.747825
2023-03-13T11:38:39.606Z,9.747477
2023-03-13T11:39:39.621Z,9.747405
2023-03-13T11:40:39.598Z,9.747445
2023-03-13T11:41:39.664Z,9.747325
2023-03-13T11:42:39.577Z,9.747348
2023-03-13T11:43:42.047Z,9.747369
2023-03-13T11:44:40.589Z,9.747385